ASX714 EIDW-BIRK
Flight info
| Callsign | ASX714 |
|---|---|
| Flight time | N/A |
| Altitude | 36000 |
| Route | NEVRI3J NEVRI DCT VM |
| Aircraft | A320/M-SDE3FGHIRWY/LB1 |
Departure
| Time | 2026-05-01 13:51 |
|---|---|
| Airport | Dublin Airport (EIDW) |
Arrival
| Time | N/A |
|---|---|
| Airport | Reykjavík Domestic Airport (BIRK) |
| Time | Latitude | Longitude | Altitude | Speed | Heading |
|---|---|---|---|---|---|
| 2026-05-01 13:26 | 53.43031 | -6.25072 | 225 ft | 0 kts | 5° |
| 2026-05-01 13:43 | 53.43029 | -6.25072 | 225 ft | 1 kts | 5° |
| 2026-05-01 13:43 | 53.43011 | -6.25074 | 225 ft | 3 kts | 0° |
| 2026-05-01 13:43 | 53.42991 | -6.25073 | 225 ft | 3 kts | 351° |
| 2026-05-01 13:43 | 53.42972 | -6.25065 | 225 ft | 3 kts | 331° |
| 2026-05-01 13:44 | 53.42958 | -6.25047 | 226 ft | 3 kts | 289° |
| 2026-05-01 13:44 | 53.42956 | -6.25032 | 225 ft | 1 kts | 275° |
| 2026-05-01 13:44 | 53.42956 | -6.25029 | 225 ft | 0 kts | 275° |
| 2026-05-01 13:46 | 53.42959 | -6.25077 | 226 ft | 8 kts | 275° |
| 2026-05-01 13:46 | 53.42965 | -6.25189 | 225 ft | 12 kts | 275° |
| 2026-05-01 13:46 | 53.43014 | -6.25295 | 225 ft | 15 kts | 335° |
| 2026-05-01 13:47 | 53.43111 | -6.25365 | 226 ft | 16 kts | 337° |
| 2026-05-01 13:47 | 53.43198 | -6.25345 | 225 ft | 13 kts | 63° |
| 2026-05-01 13:47 | 53.43208 | -6.25183 | 225 ft | 19 kts | 96° |
| 2026-05-01 13:47 | 53.43194 | -6.24910 | 225 ft | 25 kts | 95° |
| 2026-05-01 13:48 | 53.43197 | -6.24648 | 225 ft | 18 kts | 80° |
| 2026-05-01 13:48 | 53.43194 | -6.24461 | 225 ft | 15 kts | 76° |
| 2026-05-01 13:48 | 53.43271 | -6.24409 | 225 ft | 12 kts | 4° |
| 2026-05-01 13:48 | 53.43337 | -6.24349 | 225 ft | 10 kts | 68° |
| 2026-05-01 13:49 | 53.43333 | -6.24170 | 224 ft | 21 kts | 95° |
| 2026-05-01 13:49 | 53.43322 | -6.23913 | 224 ft | 20 kts | 82° |
| 2026-05-01 13:49 | 53.43391 | -6.23852 | 222 ft | 14 kts | 4° |
| 2026-05-01 13:49 | 53.43488 | -6.23874 | 215 ft | 11 kts | 288° |
| 2026-05-01 13:50 | 53.43492 | -6.23962 | 216 ft | 10 kts | 274° |
| 2026-05-01 13:50 | 53.43516 | -6.24396 | 221 ft | 72 kts | 275° |
| 2026-05-01 13:50 | 53.43581 | -6.25579 | 224 ft | 130 kts | 275° |
| 2026-05-01 13:50 | 53.43676 | -6.27319 | 356 ft | 163 kts | 276° |
| 2026-05-01 13:51 | 53.43887 | -6.29223 | 924 ft | 169 kts | 285° |
| 2026-05-01 13:51 | 53.44472 | -6.30929 | 1658 ft | 167 kts | 302° |
| 2026-05-01 13:51 | 53.44955 | -6.31962 | 2051 ft | 174 kts | 302° |
| 2026-05-01 13:51 | 53.45745 | -6.33661 | 2314 ft | 197 kts | 308° |
| 2026-05-01 13:52 | 53.46970 | -6.34983 | 2570 ft | 226 kts | 342° |
| 2026-05-01 13:52 | 53.48557 | -6.35160 | 3311 ft | 232 kts | 1° |
| 2026-05-01 13:52 | 53.50183 | -6.35023 | 4014 ft | 235 kts | 1° |
| 2026-05-01 13:52 | 53.51826 | -6.34916 | 4734 ft | 237 kts | 0° |
| 2026-05-01 13:53 | 53.53486 | -6.34676 | 5339 ft | 246 kts | 7° |
| 2026-05-01 13:53 | 53.57166 | -6.33744 | 6078 ft | 285 kts | 8° |
| 2026-05-01 13:53 | 53.59154 | -6.33233 | 6742 ft | 292 kts | 8° |
| 2026-05-01 13:54 | 53.61190 | -6.32708 | 7429 ft | 298 kts | 8° |
| 2026-05-01 13:54 | 53.63258 | -6.32175 | 8129 ft | 303 kts | 8° |
| 2026-05-01 13:54 | 53.65366 | -6.31631 | 8820 ft | 309 kts | 9° |
| 2026-05-01 13:54 | 53.67487 | -6.30908 | 9105 ft | 314 kts | 17° |
| 2026-05-01 13:55 | 53.69573 | -6.29944 | 9841 ft | 316 kts | 16° |
| 2026-05-01 13:55 | 53.71731 | -6.28961 | 10331 ft | 329 kts | 16° |
| 2026-05-01 13:55 | 53.74017 | -6.27928 | 10545 ft | 350 kts | 15° |
| 2026-05-01 13:55 | 53.76452 | -6.27258 | 11081 ft | 358 kts | 3° |
| 2026-05-01 13:56 | 53.78970 | -6.27223 | 11710 ft | 363 kts | 359° |
| 2026-05-01 13:56 | 53.81504 | -6.27221 | 12387 ft | 366 kts | 360° |
| 2026-05-01 13:56 | 53.84067 | -6.27202 | 13056 ft | 369 kts | 360° |
| 2026-05-01 13:56 | 53.86616 | -6.27172 | 13709 ft | 373 kts | 0° |
| 2026-05-01 13:57 | 53.89225 | -6.27140 | 14307 ft | 376 kts | 0° |
| 2026-05-01 13:57 | 53.91848 | -6.27110 | 14866 ft | 380 kts | 0° |
| 2026-05-01 13:57 | 53.94504 | -6.27084 | 15438 ft | 383 kts | 0° |
| 2026-05-01 13:57 | 53.97187 | -6.27059 | 15986 ft | 387 kts | 0° |
| 2026-05-01 13:58 | 53.99900 | -6.27035 | 16538 ft | 390 kts | 0° |
| 2026-05-01 13:58 | 54.02632 | -6.27016 | 17097 ft | 394 kts | 359° |
| 2026-05-01 13:58 | 54.05378 | -6.27468 | 17626 ft | 397 kts | 347° |
| 2026-05-01 13:58 | 54.08009 | -6.28760 | 18152 ft | 399 kts | 336° |
| 2026-05-01 13:59 | 54.10482 | -6.30871 | 18641 ft | 398 kts | 325° |
| 2026-05-01 13:59 | 54.12831 | -6.33414 | 19120 ft | 401 kts | 324° |
| 2026-05-01 13:59 | 54.15197 | -6.35962 | 19620 ft | 404 kts | 324° |
| 2026-05-01 13:59 | 54.17592 | -6.38531 | 20039 ft | 408 kts | 324° |
| 2026-05-01 14:00 | 54.20008 | -6.41125 | 20498 ft | 411 kts | 324° |
| 2026-05-01 14:00 | 54.22437 | -6.43739 | 20978 ft | 414 kts | 324° |
| 2026-05-01 14:00 | 54.24888 | -6.46381 | 21460 ft | 417 kts | 324° |
| 2026-05-01 14:00 | 54.27348 | -6.49041 | 21932 ft | 420 kts | 324° |
| 2026-05-01 14:01 | 54.29828 | -6.51717 | 22390 ft | 422 kts | 324° |
| 2026-05-01 14:01 | 54.32319 | -6.54408 | 22892 ft | 425 kts | 324° |
| 2026-05-01 14:01 | 54.34797 | -6.57091 | 23356 ft | 428 kts | 324° |
| 2026-05-01 14:01 | 54.37319 | -6.59830 | 23786 ft | 431 kts | 324° |
| 2026-05-01 14:02 | 54.39860 | -6.62596 | 24162 ft | 433 kts | 324° |
| 2026-05-01 14:02 | 54.42416 | -6.65386 | 24520 ft | 436 kts | 324° |
| 2026-05-01 14:02 | 54.44981 | -6.68191 | 24891 ft | 438 kts | 324° |
| 2026-05-01 14:02 | 54.47566 | -6.71024 | 25249 ft | 441 kts | 324° |
| 2026-05-01 14:03 | 54.50158 | -6.73871 | 25603 ft | 443 kts | 324° |
| 2026-05-01 14:03 | 54.52765 | -6.76735 | 25951 ft | 445 kts | 324° |
| 2026-05-01 14:03 | 54.55392 | -6.79617 | 26293 ft | 448 kts | 324° |
| 2026-05-01 14:03 | 54.58027 | -6.82507 | 26631 ft | 450 kts | 324° |
| 2026-05-01 14:04 | 54.60648 | -6.85390 | 26957 ft | 452 kts | 324° |
| 2026-05-01 14:04 | 54.63300 | -6.88317 | 27274 ft | 455 kts | 324° |
| 2026-05-01 14:04 | 54.65980 | -6.91279 | 27587 ft | 457 kts | 324° |
| 2026-05-01 14:04 | 54.68667 | -6.94248 | 27900 ft | 459 kts | 324° |
| 2026-05-01 14:05 | 54.71364 | -6.97239 | 28208 ft | 461 kts | 324° |
| 2026-05-01 14:05 | 54.74076 | -7.00254 | 28511 ft | 464 kts | 324° |
| 2026-05-01 14:05 | 54.76791 | -7.03279 | 28796 ft | 466 kts | 324° |
| 2026-05-01 14:05 | 54.79521 | -7.06331 | 29112 ft | 468 kts | 324° |
| 2026-05-01 14:06 | 54.82279 | -7.09414 | 29343 ft | 472 kts | 324° |
| 2026-05-01 14:06 | 54.85043 | -7.12505 | 29607 ft | 474 kts | 324° |
| 2026-05-01 14:06 | 54.87824 | -7.15619 | 29875 ft | 477 kts | 324° |
| 2026-05-01 14:06 | 54.90624 | -7.18755 | 30140 ft | 479 kts | 324° |
| 2026-05-01 14:07 | 54.93387 | -7.21852 | 30363 ft | 481 kts | 324° |
| 2026-05-01 14:07 | 54.96205 | -7.25018 | 30586 ft | 482 kts | 324° |
| 2026-05-01 14:07 | 54.99026 | -7.28194 | 30801 ft | 484 kts | 324° |
| 2026-05-01 14:08 | 55.04723 | -7.34628 | 31228 ft | 488 kts | 323° |
| 2026-05-01 14:08 | 55.07567 | -7.37853 | 31454 ft | 489 kts | 323° |
| 2026-05-01 14:08 | 55.10424 | -7.41104 | 31663 ft | 490 kts | 323° |
| 2026-05-01 14:08 | 55.13249 | -7.44324 | 31909 ft | 490 kts | 323° |
| 2026-05-01 14:09 | 55.16098 | -7.47572 | 32198 ft | 489 kts | 323° |
| 2026-05-01 14:09 | 55.18951 | -7.50826 | 32471 ft | 489 kts | 323° |
| 2026-05-01 14:09 | 55.21803 | -7.54083 | 32756 ft | 488 kts | 323° |
| 2026-05-01 14:09 | 55.24648 | -7.57339 | 33028 ft | 488 kts | 323° |
| 2026-05-01 14:10 | 55.27498 | -7.60612 | 33285 ft | 488 kts | 323° |
| 2026-05-01 14:10 | 55.30334 | -7.63875 | 33556 ft | 487 kts | 323° |
| 2026-05-01 14:10 | 55.33165 | -7.67137 | 33854 ft | 486 kts | 323° |
| 2026-05-01 14:10 | 55.35990 | -7.70398 | 34123 ft | 485 kts | 323° |
| 2026-05-01 14:11 | 55.38777 | -7.73617 | 34349 ft | 484 kts | 323° |
| 2026-05-01 14:11 | 55.44360 | -7.80192 | 34828 ft | 482 kts | 321° |
| 2026-05-01 14:11 | 55.47113 | -7.83602 | 34987 ft | 483 kts | 321° |
| 2026-05-01 14:12 | 55.49837 | -7.87056 | 35176 ft | 482 kts | 320° |
| 2026-05-01 14:12 | 55.52553 | -7.90537 | 35365 ft | 481 kts | 320° |
| 2026-05-01 14:12 | 55.55256 | -7.94005 | 35625 ft | 479 kts | 320° |
| 2026-05-01 14:12 | 55.57952 | -7.97452 | 35872 ft | 477 kts | 321° |
| 2026-05-01 14:13 | 55.60647 | -8.00882 | 36035 ft | 476 kts | 321° |
| 2026-05-01 14:13 | 55.62426 | -8.03138 | 36069 ft | 471 kts | 321° |
| 2026-05-01 14:13 | 55.68602 | -8.10967 | 36076 ft | 472 kts | 321° |
| 2026-05-01 14:14 | 55.73997 | -8.17852 | 36071 ft | 480 kts | 321° |
| 2026-05-01 14:14 | 55.79418 | -8.24792 | 36074 ft | 484 kts | 321° |
| 2026-05-01 14:15 | 55.84892 | -8.31820 | 36070 ft | 485 kts | 321° |
| 2026-05-01 14:15 | 55.90361 | -8.38875 | 36072 ft | 485 kts | 321° |
| 2026-05-01 14:16 | 55.95829 | -8.45954 | 36072 ft | 485 kts | 320° |
| 2026-05-01 14:16 | 56.01253 | -8.52999 | 36091 ft | 485 kts | 320° |
| 2026-05-01 14:17 | 56.06710 | -8.60118 | 36084 ft | 485 kts | 320° |
| 2026-05-01 14:17 | 56.12172 | -8.67268 | 36088 ft | 485 kts | 320° |
| 2026-05-01 14:18 | 56.17593 | -8.74365 | 36085 ft | 486 kts | 320° |
| 2026-05-01 14:18 | 56.22164 | -8.80380 | 36084 ft | 486 kts | 320° |
| 2026-05-01 14:19 | 56.28502 | -8.88766 | 36086 ft | 485 kts | 320° |
| 2026-05-01 14:19 | 56.33941 | -8.95979 | 36086 ft | 485 kts | 320° |
| 2026-05-01 14:20 | 56.42046 | -9.06781 | 36085 ft | 484 kts | 320° |
| 2026-05-01 14:21 | 56.47461 | -9.14027 | 36085 ft | 484 kts | 320° |
| 2026-05-01 14:21 | 56.52875 | -9.21278 | 36090 ft | 483 kts | 320° |
| 2026-05-01 14:22 | 56.60966 | -9.32208 | 36113 ft | 482 kts | 320° |
| 2026-05-01 14:22 | 56.66310 | -9.39475 | 36098 ft | 482 kts | 320° |
| 2026-05-01 14:23 | 56.71688 | -9.46795 | 36098 ft | 482 kts | 320° |
| 2026-05-01 14:23 | 56.77061 | -9.54138 | 36096 ft | 482 kts | 319° |
| 2026-05-01 14:24 | 56.82388 | -9.61445 | 36095 ft | 481 kts | 319° |
| 2026-05-01 14:24 | 56.87740 | -9.68806 | 36095 ft | 480 kts | 319° |
| 2026-05-01 14:25 | 56.93081 | -9.76179 | 36093 ft | 480 kts | 319° |
| 2026-05-01 14:25 | 56.98372 | -9.83515 | 36092 ft | 480 kts | 319° |
| 2026-05-01 14:26 | 57.06345 | -9.94616 | 36101 ft | 479 kts | 319° |
| 2026-05-01 14:27 | 57.11660 | -10.02036 | 36111 ft | 478 kts | 319° |
| 2026-05-01 14:27 | 57.16924 | -10.09424 | 36108 ft | 478 kts | 319° |
| 2026-05-01 14:28 | 57.24852 | -10.20605 | 36126 ft | 477 kts | 319° |
| 2026-05-01 14:28 | 57.30088 | -10.28030 | 36120 ft | 476 kts | 319° |
| 2026-05-01 14:29 | 57.35326 | -10.35489 | 36123 ft | 475 kts | 319° |
| 2026-05-01 14:30 | 57.45778 | -10.50434 | 36121 ft | 473 kts | 319° |
| 2026-05-01 14:31 | 57.53594 | -10.61663 | 36127 ft | 472 kts | 318° |
| 2026-05-01 14:31 | 57.58745 | -10.69114 | 36129 ft | 471 kts | 318° |
| 2026-05-01 14:32 | 57.63905 | -10.76634 | 36128 ft | 470 kts | 318° |
| 2026-05-01 14:32 | 57.69061 | -10.84155 | 36122 ft | 469 kts | 318° |
| 2026-05-01 14:33 | 57.74206 | -10.91663 | 36128 ft | 468 kts | 318° |
| 2026-05-01 14:33 | 57.79294 | -10.99132 | 36142 ft | 467 kts | 318° |
| 2026-05-01 14:34 | 57.84399 | -11.06641 | 36130 ft | 466 kts | 318° |
| 2026-05-01 14:34 | 57.89492 | -11.14173 | 36126 ft | 465 kts | 318° |
| 2026-05-01 14:35 | 57.94567 | -11.21703 | 36118 ft | 464 kts | 318° |
| 2026-05-01 14:35 | 57.99628 | -11.29244 | 36136 ft | 463 kts | 317° |
| 2026-05-01 14:36 | 58.04644 | -11.36729 | 36123 ft | 462 kts | 317° |
| 2026-05-01 14:36 | 58.09689 | -11.44301 | 36116 ft | 462 kts | 317° |
| 2026-05-01 14:37 | 58.14712 | -11.51878 | 36113 ft | 461 kts | 317° |
| 2026-05-01 14:37 | 58.19733 | -11.59478 | 36108 ft | 461 kts | 317° |
| 2026-05-01 14:38 | 58.24755 | -11.67092 | 36104 ft | 462 kts | 317° |
| 2026-05-01 14:38 | 58.29733 | -11.74689 | 36103 ft | 462 kts | 317° |
| 2026-05-01 14:39 | 58.34741 | -11.82339 | 36108 ft | 462 kts | 317° |
| 2026-05-01 14:39 | 58.39759 | -11.90016 | 36116 ft | 461 kts | 317° |
| 2026-05-01 14:40 | 58.44758 | -11.97728 | 36121 ft | 460 kts | 317° |
| 2026-05-01 14:40 | 58.49703 | -12.05378 | 36126 ft | 460 kts | 317° |
| 2026-05-01 14:41 | 58.54672 | -12.13082 | 36119 ft | 459 kts | 317° |
| 2026-05-01 14:41 | 58.58789 | -12.19508 | 36110 ft | 458 kts | 316° |
| 2026-05-01 14:42 | 58.63728 | -12.27237 | 36104 ft | 458 kts | 316° |
| 2026-05-01 14:42 | 58.68643 | -12.34940 | 36100 ft | 457 kts | 316° |
| 2026-05-01 14:43 | 58.73576 | -12.42694 | 36118 ft | 457 kts | 316° |
| 2026-05-01 14:43 | 58.78491 | -12.50476 | 36106 ft | 456 kts | 316° |
| 2026-05-01 14:44 | 58.83392 | -12.58237 | 36105 ft | 456 kts | 316° |
| 2026-05-01 14:44 | 58.90736 | -12.69939 | 36094 ft | 455 kts | 316° |
| 2026-05-01 14:45 | 58.98020 | -12.81640 | 36113 ft | 455 kts | 316° |
| 2026-05-01 14:46 | 59.02901 | -12.89505 | 36108 ft | 453 kts | 316° |
| 2026-05-01 14:46 | 59.10131 | -13.01203 | 36098 ft | 451 kts | 316° |
| 2026-05-01 14:47 | 59.14951 | -13.09053 | 36090 ft | 451 kts | 316° |
| 2026-05-01 14:48 | 59.22151 | -13.20794 | 36109 ft | 451 kts | 315° |
| 2026-05-01 14:48 | 59.29332 | -13.32570 | 36084 ft | 448 kts | 315° |
| 2026-05-01 14:49 | 59.38846 | -13.48342 | 36076 ft | 447 kts | 315° |
| 2026-05-01 14:50 | 59.48332 | -13.64128 | 36100 ft | 447 kts | 315° |
| 2026-05-01 14:51 | 59.55409 | -13.76007 | 36082 ft | 444 kts | 315° |
| 2026-05-01 14:52 | 59.62427 | -13.87839 | 36072 ft | 443 kts | 315° |
| 2026-05-01 14:53 | 59.69455 | -13.99756 | 36067 ft | 443 kts | 314° |
| 2026-05-01 14:53 | 59.74117 | -14.07716 | 36076 ft | 441 kts | 314° |
| 2026-05-01 14:54 | 59.78737 | -14.15618 | 36066 ft | 441 kts | 314° |
| 2026-05-01 14:54 | 59.83380 | -14.23608 | 36059 ft | 441 kts | 314° |
| 2026-05-01 14:55 | 59.88016 | -14.31623 | 36055 ft | 441 kts | 314° |
| 2026-05-01 14:55 | 59.92652 | -14.39663 | 36054 ft | 441 kts | 314° |
| 2026-05-01 14:56 | 59.97260 | -14.47642 | 36080 ft | 441 kts | 314° |
| 2026-05-01 14:56 | 60.01890 | -14.55718 | 36064 ft | 441 kts | 314° |
| 2026-05-01 14:57 | 60.06508 | -14.63814 | 36058 ft | 441 kts | 314° |
| 2026-05-01 14:57 | 60.13404 | -14.75946 | 36053 ft | 441 kts | 314° |
| 2026-05-01 14:58 | 60.18014 | -14.84099 | 36055 ft | 441 kts | 314° |
| 2026-05-01 14:58 | 60.22613 | -14.92258 | 36089 ft | 440 kts | 314° |
| 2026-05-01 14:59 | 60.27170 | -15.00381 | 36075 ft | 439 kts | 314° |
| 2026-05-01 14:59 | 60.31742 | -15.08560 | 36070 ft | 438 kts | 314° |
| 2026-05-01 15:00 | 60.38565 | -15.20837 | 36051 ft | 437 kts | 314° |
| 2026-05-01 15:01 | 60.43073 | -15.28985 | 36065 ft | 436 kts | 314° |
| 2026-05-01 15:01 | 60.47599 | -15.37212 | 36094 ft | 436 kts | 314° |
| 2026-05-01 15:02 | 60.52119 | -15.45454 | 36075 ft | 436 kts | 314° |
| 2026-05-01 15:02 | 60.56626 | -15.53681 | 36077 ft | 435 kts | 314° |
| 2026-05-01 15:03 | 60.61130 | -15.61921 | 36072 ft | 435 kts | 314° |
| 2026-05-01 15:03 | 60.65590 | -15.70144 | 36071 ft | 434 kts | 313° |
| 2026-05-01 15:04 | 60.70065 | -15.78440 | 36071 ft | 434 kts | 313° |
| 2026-05-01 15:04 | 60.74519 | -15.86712 | 36067 ft | 434 kts | 313° |
| 2026-05-01 15:05 | 60.78981 | -15.95035 | 36076 ft | 434 kts | 314° |
| 2026-05-01 15:05 | 60.83438 | -16.03367 | 36074 ft | 433 kts | 314° |
| 2026-05-01 15:06 | 60.87887 | -16.11725 | 36069 ft | 433 kts | 313° |
| 2026-05-01 15:06 | 60.92304 | -16.20053 | 36077 ft | 433 kts | 313° |
| 2026-05-01 15:07 | 60.96740 | -16.28456 | 36104 ft | 433 kts | 313° |
| 2026-05-01 15:07 | 61.01168 | -16.36867 | 36093 ft | 432 kts | 313° |
| 2026-05-01 15:08 | 61.05588 | -16.45319 | 36083 ft | 432 kts | 313° |
| 2026-05-01 15:08 | 61.09967 | -16.53722 | 36081 ft | 432 kts | 313° |
| 2026-05-01 15:09 | 61.14378 | -16.62192 | 36082 ft | 432 kts | 313° |
| 2026-05-01 15:09 | 61.18780 | -16.70674 | 36083 ft | 432 kts | 313° |
| 2026-05-01 15:10 | 61.23131 | -16.79127 | 36067 ft | 429 kts | 313° |
| 2026-05-01 15:10 | 61.29672 | -16.91895 | 36069 ft | 430 kts | 312° |
| 2026-05-01 15:11 | 61.36204 | -17.04718 | 36076 ft | 430 kts | 313° |
| 2026-05-01 15:12 | 61.40554 | -17.13276 | 36084 ft | 429 kts | 313° |
| 2026-05-01 15:12 | 61.47729 | -17.24532 | 36089 ft | 434 kts | 323° |
| 2026-05-01 15:14 | 61.60310 | -17.41865 | 36080 ft | 431 kts | 320° |
| 2026-05-01 15:14 | 61.67601 | -17.52868 | 36074 ft | 431 kts | 320° |
| 2026-05-01 15:15 | 61.77397 | -17.67521 | 36077 ft | 430 kts | 320° |
| 2026-05-01 15:16 | 61.87143 | -17.82187 | 36075 ft | 431 kts | 320° |
| 2026-05-01 15:18 | 61.99302 | -18.00673 | 36079 ft | 430 kts | 320° |
| 2026-05-01 15:19 | 62.09032 | -18.15568 | 36056 ft | 431 kts | 319° |
| 2026-05-01 15:19 | 62.16326 | -18.26843 | 36079 ft | 431 kts | 319° |
| 2026-05-01 15:20 | 62.23580 | -18.38109 | 36063 ft | 430 kts | 319° |
| 2026-05-01 15:20 | 62.26000 | -18.41891 | 35462 ft | 429 kts | 319° |
| 2026-05-01 15:21 | 62.28414 | -18.45665 | 34774 ft | 428 kts | 319° |
| 2026-05-01 15:21 | 62.30820 | -18.49431 | 34107 ft | 428 kts | 319° |
| 2026-05-01 15:21 | 62.33226 | -18.53202 | 33325 ft | 427 kts | 319° |
| 2026-05-01 15:21 | 62.35620 | -18.56963 | 32543 ft | 425 kts | 319° |
| 2026-05-01 15:22 | 62.40371 | -18.64469 | 30997 ft | 422 kts | 319° |
| 2026-05-01 15:22 | 62.42731 | -18.68210 | 30246 ft | 420 kts | 319° |
| 2026-05-01 15:22 | 62.45073 | -18.71910 | 29612 ft | 413 kts | 319° |
| 2026-05-01 15:23 | 62.47378 | -18.75551 | 28940 ft | 408 kts | 319° |
| 2026-05-01 15:23 | 62.49630 | -18.79124 | 28314 ft | 404 kts | 319° |
| 2026-05-01 15:23 | 62.51886 | -18.82717 | 27664 ft | 400 kts | 319° |
| 2026-05-01 15:23 | 62.54117 | -18.86279 | 27021 ft | 396 kts | 319° |
| 2026-05-01 15:24 | 62.56329 | -18.89823 | 26400 ft | 392 kts | 319° |
| 2026-05-01 15:24 | 62.58492 | -18.93297 | 25800 ft | 389 kts | 319° |
| 2026-05-01 15:24 | 62.60658 | -18.96779 | 25203 ft | 386 kts | 319° |
| 2026-05-01 15:24 | 62.62805 | -19.00233 | 24626 ft | 382 kts | 319° |
| 2026-05-01 15:25 | 62.64943 | -19.03679 | 23817 ft | 385 kts | 319° |
| 2026-05-01 15:25 | 62.67124 | -19.07211 | 22551 ft | 396 kts | 319° |
| 2026-05-01 15:25 | 62.69339 | -19.10814 | 21667 ft | 397 kts | 319° |
| 2026-05-01 15:25 | 62.71552 | -19.14407 | 20970 ft | 394 kts | 320° |
| 2026-05-01 15:26 | 62.73718 | -19.17919 | 20334 ft | 390 kts | 320° |
| 2026-05-01 15:26 | 62.75912 | -19.21477 | 19768 ft | 385 kts | 320° |
| 2026-05-01 15:26 | 62.78026 | -19.24900 | 19191 ft | 381 kts | 320° |
| 2026-05-01 15:26 | 62.80144 | -19.28340 | 18611 ft | 377 kts | 320° |
| 2026-05-01 15:27 | 62.82240 | -19.31767 | 17996 ft | 374 kts | 320° |
| 2026-05-01 15:27 | 62.84310 | -19.35176 | 17375 ft | 371 kts | 320° |
| 2026-05-01 15:27 | 62.86364 | -19.38567 | 16781 ft | 367 kts | 320° |
| 2026-05-01 15:28 | 62.90413 | -19.45237 | 15655 ft | 361 kts | 320° |
| 2026-05-01 15:28 | 62.92415 | -19.48540 | 15099 ft | 358 kts | 320° |
| 2026-05-01 15:28 | 62.94394 | -19.51813 | 14552 ft | 355 kts | 320° |
| 2026-05-01 15:29 | 62.98303 | -19.58313 | 13422 ft | 349 kts | 320° |
| 2026-05-01 15:29 | 63.00207 | -19.61484 | 12833 ft | 346 kts | 320° |
| 2026-05-01 15:29 | 63.04020 | -19.67838 | 11618 ft | 340 kts | 321° |
| 2026-05-01 15:30 | 63.07144 | -19.73050 | 10692 ft | 334 kts | 321° |
| 2026-05-01 15:31 | 63.13765 | -19.84153 | 10561 ft | 261 kts | 320° |
| 2026-05-01 15:31 | 63.16992 | -19.89608 | 10108 ft | 246 kts | 320° |
| 2026-05-01 15:32 | 63.19263 | -19.93456 | 9498 ft | 244 kts | 321° |
| 2026-05-01 15:32 | 63.22008 | -19.98100 | 8445 ft | 251 kts | 321° |
| 2026-05-01 15:33 | 63.26149 | -20.05142 | 7258 ft | 248 kts | 321° |
| 2026-05-01 15:34 | 63.30228 | -20.12094 | 6929 ft | 247 kts | 321° |